Time;durP1;ratioP1;P1;durP2;ratioP2;P2;SDS_P1;SDS_P2;PMS_P1;PMS_P2;Temp;Humidity;BMP_temperature;BMP_pressure;BME280_temperature;BME280_humidity;BME280_pressure;Samples;Min_cycle;Max_cycle;Signal;HPM_P1;HPM_P2
2024/04/17 00:00:58;;;;;;;10.13;4.95;;;22.10;99.90;;;;;;5396514;26;20010;-71
2024/04/17 00:03:25;;;;;;;10.98;4.28;;;22.10;99.90;;;;;;5396641;26;20068;-72
2024/04/17 00:05:52;;;;;;;8.95;3.88;;;22.00;99.90;;;;;;5396844;26;19996;-69
2024/04/17 00:08:19;;;;;;;15.82;5.20;;;21.90;99.90;;;;;;5396547;26;20501;-72
2024/04/17 00:10:47;;;;;;;9.85;4.25;;;21.80;99.90;;;;;;5395892;26;20000;-69
2024/04/17 00:13:14;;;;;;;11.00;4.95;;;21.80;99.90;;;;;;5431267;26;20458;-72
2024/04/17 00:15:41;;;;;;;9.07;4.70;;;21.80;99.90;;;;;;5431628;26;20439;-71
2024/04/17 00:18:08;;;;;;;15.85;5.03;;;21.70;99.90;;;;;;5431320;26;19994;-70
2024/04/17 00:20:36;;;;;;;7.95;3.80;;;21.80;99.90;;;;;;5446988;26;20017;-71
2024/04/17 00:23:03;;;;;;;8.73;5.03;;;21.70;99.90;;;;;;5396505;26;20415;-71
2024/04/17 00:25:30;;;;;;;6.95;4.57;;;21.80;99.90;;;;;;5395696;26;19996;-71
2024/04/17 00:28:16;;;;;;;8.15;4.40;;;21.80;99.90;;;;;;5396557;26;20000;-72
2024/04/17 00:30:49;;;;;;;8.75;4.93;;;21.70;99.90;;;;;;5396004;26;19999;-73
2024/04/17 00:33:16;;;;;;;14.40;5.38;;;21.80;99.90;;;;;;5397318;26;20026;-72
2024/04/17 00:35:44;;;;;;;11.00;6.20;;;21.70;99.90;;;;;;5395033;26;20010;-69
2024/04/17 00:38:11;;;;;;;14.57;4.53;;;21.70;99.90;;;;;;5396185;26;20003;-72
2024/04/17 00:40:39;;;;;;;7.97;5.00;;;21.70;99.90;;;;;;5394388;26;20003;-73
2024/04/17 00:43:06;;;;;;;12.52;3.83;;;21.70;99.90;;;;;;5395662;26;20442;-72
2024/04/17 00:45:45;;;;;;;10.07;4.25;;;22.00;99.90;;;;;;5395980;26;20454;-71
2024/04/17 00:48:14;;;;;;;13.25;5.32;;;22.00;99.90;;;;;;5394481;26;20000;-71
2024/04/17 00:50:46;;;;;;;7.65;3.92;;;22.20;99.90;;;;;;5393814;26;20043;-71
2024/04/17 00:53:32;;;;;;;10.73;4.18;;;22.20;99.90;;;;;;5395717;26;20724;-72
2024/04/17 00:56:01;;;;;;;12.07;4.13;;;22.40;99.90;;;;;;5394450;26;20081;-69
2024/04/17 00:58:29;;;;;;;10.40;4.45;;;22.60;99.90;;;;;;5393998;26;20509;-71
2024/04/17 01:00:56;;;;;;;9.45;4.10;;;22.70;99.90;;;;;;5394639;26;19996;-72
2024/04/17 01:03:23;;;;;;;7.85;4.22;;;22.60;99.90;;;;;;5396050;26;20108;-71
2024/04/17 01:05:51;;;;;;;10.20;4.45;;;22.70;99.90;;;;;;5395646;26;20072;-69
2024/04/17 01:08:18;;;;;;;9.57;4.30;;;22.70;99.90;;;;;;5396374;26;20011;-69
2024/04/17 01:10:46;;;;;;;8.63;4.82;;;22.80;99.90;;;;;;5395185;26;20004;-70
2024/04/17 01:13:13;;;;;;;8.55;4.50;;;22.90;99.90;;;;;;5395121;26;20004;-72
2024/04/17 01:15:40;;;;;;;11.45;4.57;;;23.20;99.90;;;;;;5395444;26;20006;-71
2024/04/17 01:18:08;;;;;;;8.68;4.22;;;23.20;99.90;;;;;;5396190;26;20011;-70
2024/04/17 01:20:35;;;;;;;44.28;8.68;;;23.30;99.90;;;;;;5395217;26;20000;-69
2024/04/17 01:23:03;;;;;;;8.73;4.20;;;23.40;99.90;;;;;;5395460;26;20244;-69
2024/04/17 01:25:30;;;;;;;10.35;4.80;;;23.60;99.90;;;;;;5395425;26;20015;-68
2024/04/17 01:27:57;;;;;;;8.27;5.90;;;23.70;99.90;;;;;;5396052;26;19992;-68
2024/04/17 01:30:24;;;;;;;7.43;4.53;;;23.90;99.90;;;;;;5397939;26;19995;-69
2024/04/17 01:32:52;;;;;;;10.82;4.07;;;24.00;99.90;;;;;;5399025;26;19995;-68
2024/04/17 01:35:19;;;;;;;11.50;4.10;;;23.90;99.90;;;;;;5399234;26;20678;-69
2024/04/17 01:37:46;;;;;;;11.25;5.97;;;23.80;99.90;;;;;;5397885;26;19991;-68
2024/04/17 01:40:13;;;;;;;8.20;3.60;;;23.90;99.90;;;;;;5398272;26;20068;-70
2024/04/17 01:42:41;;;;;;;7.95;3.90;;;23.90;99.90;;;;;;5399101;26;20447;-68
2024/04/17 01:45:08;;;;;;;16.08;6.55;;;23.80;99.90;;;;;;5399068;26;19995;-68
2024/04/17 01:47:35;;;;;;;6.10;3.67;;;24.00;99.90;;;;;;5398398;26;20501;-68
2024/04/17 01:50:04;;;;;;;11.15;4.20;;;24.20;99.90;;;;;;5398258;26;20003;-69
2024/04/17 01:52:31;;;;;;;8.77;4.18;;;24.40;99.90;;;;;;5399492;26;20006;-68
2024/04/17 01:54:58;;;;;;;9.43;3.72;;;24.30;99.90;;;;;;5398242;26;19995;-69
2024/04/17 01:57:26;;;;;;;11.30;3.72;;;24.40;99.90;;;;;;5398210;26;20080;-68
2024/04/17 01:59:53;;;;;;;25.85;4.32;;;24.50;99.90;;;;;;5397509;26;20284;-68
2024/04/17 02:02:20;;;;;;;25.33;4.45;;;24.40;99.90;;;;;;5395583;26;20000;-69
2024/04/17 02:04:48;;;;;;;7.80;3.50;;;24.40;99.90;;;;;;5398105;26;20033;-69
2024/04/17 02:07:15;;;;;;;5.78;3.63;;;24.60;99.90;;;;;;5398853;26;20328;-70
2024/04/17 02:09:42;;;;;;;6.18;3.58;;;24.50;99.90;;;;;;5397878;26;20954;-70
2024/04/17 02:12:09;;;;;;;8.43;3.25;;;24.30;99.90;;;;;;5397246;26;20018;-69
2024/04/17 02:14:37;;;;;;;7.88;3.40;;;24.30;99.90;;;;;;5396928;26;20003;-71
2024/04/17 02:17:04;;;;;;;6.78;3.60;;;24.10;99.90;;;;;;5398532;26;20344;-69
2024/04/17 02:19:31;;;;;;;11.55;4.03;;;23.90;99.90;;;;;;5398802;26;20019;-70
2024/04/17 02:21:59;;;;;;;9.07;3.92;;;23.80;99.90;;;;;;5397856;26;20744;-68
2024/04/17 02:24:26;;;;;;;8.95;4.15;;;23.70;99.90;;;;;;5397810;26;20000;-69
2024/04/17 02:26:53;;;;;;;12.55;5.68;;;23.60;99.90;;;;;;5376156;26;20034;-70
2024/04/17 02:29:20;;;;;;;11.00;7.13;;;23.80;99.90;;;;;;5397739;26;20001;-69
2024/04/17 02:31:48;;;;;;;8.50;6.57;;;24.10;99.90;;;;;;5397736;26;20032;-68
2024/04/17 02:34:15;;;;;;;6.30;4.03;;;24.20;99.90;;;;;;5396965;26;20380;-69
2024/04/17 02:36:43;;;;;;;8.85;4.28;;;24.60;99.90;;;;;;5397870;26;20005;-70
2024/04/17 02:39:10;;;;;;;6.90;3.72;;;24.90;99.90;;;;;;5391418;26;20011;-71
2024/04/17 02:41:38;;;;;;;10.50;3.25;;;25.70;99.90;;;;;;5397015;26;20016;-69
2024/04/17 02:44:06;;;;;;;7.43;3.13;;;26.00;99.90;;;;;;5398409;26;20015;-68
2024/04/17 02:46:33;;;;;;;7.20;3.38;;;26.20;99.90;;;;;;5391528;26;20015;-68
2024/04/17 02:49:01;;;;;;;6.68;3.40;;;26.20;99.90;;;;;;5395952;26;20011;-70
2024/04/17 02:51:28;;;;;;;6.00;4.45;;;25.80;99.90;;;;;;5397084;26;19999;-70
2024/04/17 02:53:55;;;;;;;6.53;4.22;;;25.40;99.90;;;;;;5396881;26;20012;-71
2024/04/17 02:56:22;;;;;;;9.55;4.32;;;25.20;99.90;;;;;;5397196;26;20014;-69
2024/04/17 02:58:50;;;;;;;7.47;3.78;;;25.10;99.90;;;;;;5397946;26;20017;-68
2024/04/17 03:01:17;;;;;;;11.52;4.95;;;25.10;99.90;;;;;;5396371;26;19995;-70
2024/04/17 03:03:44;;;;;;;7.18;3.78;;;25.10;99.90;;;;;;5398270;26;19999;-70
2024/04/17 03:06:11;;;;;;;5.07;3.50;;;25.00;99.90;;;;;;5399086;26;20000;-69
2024/04/17 03:08:39;;;;;;;10.70;3.90;;;25.50;99.90;;;;;;5397735;26;20076;-72
2024/04/17 03:11:06;;;;;;;6.53;3.22;;;26.70;99.90;;;;;;5396820;26;20352;-71
2024/04/17 03:13:33;;;;;;;3.95;2.95;;;28.00;99.90;;;;;;5396265;26;19999;-70
2024/04/17 03:16:04;;;;;;;6.97;3.00;;;28.90;99.90;;;;;;5397866;26;20039;-68
2024/04/17 03:18:31;;;;;;;7.75;3.28;;;29.60;99.20;;;;;;5394832;26;20008;-70
2024/04/17 03:21:02;;;;;;;9.70;3.42;;;29.90;97.70;;;;;;5397077;26;20010;-69
2024/04/17 03:23:29;;;;;;;9.98;3.30;;;29.70;97.10;;;;;;5396473;26;19995;-70
2024/04/17 03:25:57;;;;;;;5.57;3.33;;;29.20;97.40;;;;;;5396775;26;20010;-72
2024/04/17 03:28:24;;;;;;;8.85;3.33;;;28.20;99.00;;;;;;5396648;26;20003;-68
2024/04/17 03:30:52;;;;;;;6.03;3.30;;;27.40;99.90;;;;;;5396927;26;20035;-67
2024/04/17 03:33:19;;;;;;;7.63;4.25;;;27.40;99.90;;;;;;5396948;26;19999;-69
2024/04/17 03:35:59;;;;;;;4.22;3.00;;;28.50;99.90;;;;;;5397795;26;20064;-68
2024/04/17 03:38:27;;;;;;;7.32;4.40;;;30.20;98.10;;;;;;5396212;26;20000;-68
2024/04/17 03:40:57;;;;;;;5.60;3.35;;;31.40;94.80;;;;;;5396584;26;21253;-68
2024/04/17 03:43:25;;;;;;;7.60;3.90;;;30.90;95.00;;;;;;5395786;26;20014;-68
2024/04/17 03:45:52;;;;;;;8.73;3.30;;;31.10;95.00;;;;;;5394892;26;20011;-69
2024/04/17 03:48:19;;;;;;;8.90;4.35;;;31.80;93.80;;;;;;5396912;26;20456;-71
2024/04/17 03:50:46;;;;;;;6.22;3.42;;;32.10;92.80;;;;;;5397929;26;19992;-68
2024/04/17 03:53:14;;;;;;;9.60;3.63;;;32.50;92.10;;;;;;5395510;26;20007;-69
2024/04/17 03:55:41;;;;;;;4.60;3.00;;;32.80;91.40;;;;;;5395733;26;20007;-68
2024/04/17 03:58:09;;;;;;;6.88;3.53;;;32.70;91.40;;;;;;5396495;26;20025;-70
2024/04/17 04:00:36;;;;;;;6.75;3.60;;;32.40;91.20;;;;;;5395909;26;20325;-69
2024/04/17 04:03:04;;;;;;;5.35;3.20;;;31.80;91.90;;;;;;5396318;26;20010;-71
2024/04/17 04:05:31;;;;;;;5.20;2.45;;;32.50;91.70;;;;;;5396467;26;20476;-68
2024/04/17 04:07:58;;;;;;;6.28;2.63;;;32.80;91.40;;;;;;5395362;26;20093;-68
2024/04/17 04:10:25;;;;;;;5.53;2.83;;;32.10;90.90;;;;;;5396059;26;20044;-71
2024/04/17 04:12:53;;;;;;;6.40;3.22;;;30.80;92.50;;;;;;5397404;26;20486;-69
2024/04/17 04:15:20;;;;;;;7.25;3.70;;;30.10;94.00;;;;;;5397084;26;20003;-70
2024/04/17 04:17:47;;;;;;;8.85;3.53;;;29.50;95.20;;;;;;5397061;26;20011;-69
2024/04/17 04:20:14;;;;;;;5.93;3.00;;;29.50;95.30;;;;;;5400392;26;20009;-68
2024/04/17 04:22:42;;;;;;;10.15;3.63;;;30.30;94.20;;;;;;5431326;26;20835;-69
2024/04/17 04:25:09;;;;;;;11.27;3.72;;;31.10;92.60;;;;;;5431671;26;20023;-68
2024/04/17 04:27:36;;;;;;;10.57;3.65;;;30.70;92.90;;;;;;5431368;26;20005;-71
2024/04/17 04:30:04;;;;;;;6.35;3.55;;;30.00;93.70;;;;;;5398105;26;20015;-71
2024/04/17 04:32:31;;;;;;;6.57;3.53;;;29.30;94.70;;;;;;5395025;26;19999;-69
2024/04/17 04:34:58;;;;;;;6.88;3.55;;;29.70;95.00;;;;;;5396477;26;19992;-69
2024/04/17 04:37:26;;;;;;;5.90;3.08;;;29.90;94.70;;;;;;5397309;26;19995;-71
2024/04/17 04:39:53;;;;;;;6.65;3.05;;;29.40;95.10;;;;;;5396246;26;20000;-69
2024/04/17 04:42:20;;;;;;;8.65;3.70;;;29.10;95.30;;;;;;5395754;26;19999;-69
2024/04/17 04:44:48;;;;;;;5.32;3.30;;;28.70;96.10;;;;;;5394767;26;20776;-68
2024/04/17 04:47:16;;;;;;;7.97;3.28;;;28.10;97.10;;;;;;5395278;26;20050;-68
2024/04/17 04:49:45;;;;;;;7.90;3.10;;;27.80;98.30;;;;;;5395063;26;20011;-70
2024/04/17 04:52:12;;;;;;;10.88;3.60;;;28.60;97.90;;;;;;5395955;26;20454;-67
2024/04/17 04:54:40;;;;;;;8.73;3.70;;;28.70;97.00;;;;;;5395032;26;20030;-69
2024/04/17 04:57:07;;;;;;;9.93;3.70;;;28.70;97.00;;;;;;5394922;26;19995;-68
2024/04/17 04:59:34;;;;;;;10.48;3.42;;;29.00;96.90;;;;;;5393053;26;20024;-69
2024/04/17 05:02:02;;;;;;;7.10;2.85;;;29.40;96.60;;;;;;5396118;26;19992;-69
2024/04/17 05:04:29;;;;;;;12.70;3.58;;;30.40;95.40;;;;;;5398921;26;20398;-72
2024/04/17 05:06:56;;;;;;;7.28;3.17;;;31.20;93.30;;;;;;5399318;26;19992;-67
2024/04/17 05:09:26;;;;;;;12.63;3.45;;;30.90;93.30;;;;;;5398450;26;20018;-68
2024/04/17 05:11:53;;;;;;;9.85;3.60;;;30.00;94.20;;;;;;5398148;26;20010;-68
2024/04/17 05:14:20;;;;;;;9.00;3.85;;;28.70;96.10;;;;;;5398380;26;20840;-68
2024/04/17 05:16:47;;;;;;;10.38;4.18;;;27.70;97.40;;;;;;5398374;26;20010;-69
2024/04/17 05:19:15;;;;;;;7.97;3.85;;;26.80;99.40;;;;;;5398170;26;20026;-71
2024/04/17 05:21:42;;;;;;;12.43;4.70;;;25.90;99.90;;;;;;5397240;26;20011;-66
2024/04/17 05:24:09;;;;;;;12.25;4.63;;;25.30;99.90;;;;;;5397466;26;19995;-69
2024/04/17 05:26:36;;;;;;;8.18;3.92;;;24.70;99.90;;;;;;5399402;26;19995;-68
2024/04/17 05:29:04;;;;;;;9.18;4.15;;;24.20;99.90;;;;;;5399309;26;20065;-67
2024/04/17 05:31:32;;;;;;;8.05;4.30;;;24.00;99.90;;;;;;5398999;26;20000;-69
2024/04/17 05:33:59;;;;;;;11.45;5.22;;;23.70;99.90;;;;;;5398340;26;19991;-67
2024/04/17 05:36:27;;;;;;;8.02;4.05;;;23.50;99.90;;;;;;5397858;26;20061;-69
2024/04/17 05:38:54;;;;;;;12.60;5.28;;;23.30;99.90;;;;;;5398813;26;20014;-68
2024/04/17 05:41:21;;;;;;;8.55;4.40;;;23.10;99.90;;;;;;5401918;26;20340;-69
2024/04/17 05:43:49;;;;;;;6.93;4.50;;;23.20;99.90;;;;;;5436066;26;20324;-71
2024/04/17 05:46:16;;;;;;;9.70;4.65;;;23.30;99.90;;;;;;5433216;26;20034;-68
2024/04/17 05:48:43;;;;;;;9.93;3.88;;;24.40;99.90;;;;;;5422042;26;20004;-69
2024/04/17 05:51:10;;;;;;;6.18;3.55;;;26.00;99.90;;;;;;5396109;26;20637;-70
2024/04/17 05:53:38;;;;;;;19.30;4.10;;;27.80;99.90;;;;;;5428224;26;20476;-70
2024/04/17 05:56:05;;;;;;;12.38;3.75;;;29.30;99.70;;;;;;5397881;26;19999;-66
2024/04/17 05:58:33;;;;;;;9.15;3.80;;;30.10;97.50;;;;;;5397910;26;20000;-68
2024/04/17 06:01:00;;;;;;;6.80;3.10;;;30.60;95.90;;;;;;5396809;26;20027;-71
2024/04/17 06:03:27;;;;;;;8.18;3.13;;;30.80;96.10;;;;;;5396219;26;20019;-69
2024/04/17 06:05:54;;;;;;;8.52;3.78;;;31.40;94.70;;;;;;5397461;26;20000;-68
2024/04/17 06:08:22;;;;;;;7.45;3.40;;;31.30;94.40;;;;;;5398008;26;20362;-69
2024/04/17 06:10:49;;;;;;;6.97;3.42;;;31.30;94.10;;;;;;5397489;26;20040;-68
2024/04/17 06:13:16;;;;;;;9.68;3.72;;;31.40;93.70;;;;;;5423770;26;19992;-71
2024/04/17 06:15:45;;;;;;;6.82;3.55;;;31.20;93.70;;;;;;5398871;26;20448;-68
2024/04/17 06:18:12;;;;;;;8.00;3.53;;;30.70;94.10;;;;;;5396452;26;20397;-69
2024/04/17 06:20:41;;;;;;;7.72;3.33;;;30.30;94.60;;;;;;5396523;26;20064;-67
2024/04/17 06:23:09;;;;;;;8.35;3.47;;;29.80;95.30;;;;;;5388680;26;20004;-68
2024/04/17 06:25:41;;;;;;;7.60;3.33;;;29.40;96.20;;;;;;5394850;26;20035;-68
2024/04/17 06:28:08;;;;;;;9.18;3.65;;;29.50;95.90;;;;;;5377875;26;20096;-71
2024/04/17 06:30:35;;;;;;;5.68;3.00;;;29.30;95.90;;;;;;5377173;26;20008;-67
2024/04/17 06:33:02;;;;;;;7.45;3.63;;;29.30;96.50;;;;;;5390999;26;20072;-68
2024/04/17 06:35:30;;;;;;;9.07;3.67;;;29.40;96.10;;;;;;5390782;26;20003;-67
2024/04/17 06:37:57;;;;;;;7.18;3.38;;;29.20;96.00;;;;;;5424131;26;20000;-68
2024/04/17 06:40:24;;;;;;;12.65;3.60;;;28.60;97.00;;;;;;5397088;26;20011;-69
2024/04/17 06:42:52;;;;;;;7.18;4.22;;;28.10;97.90;;;;;;5427530;26;20003;-67
2024/04/17 06:45:19;;;;;;;9.88;4.47;;;27.70;98.70;;;;;;5396360;26;20003;-68
2024/04/17 06:47:46;;;;;;;7.43;3.63;;;27.50;98.60;;;;;;5388109;26;20021;-67
2024/04/17 06:50:14;;;;;;;10.60;4.18;;;27.00;99.50;;;;;;5379665;26;20023;-69
2024/04/17 06:52:41;;;;;;;8.82;4.78;;;26.50;99.90;;;;;;5391020;26;20074;-69
2024/04/17 06:55:08;;;;;;;7.07;4.40;;;25.80;99.90;;;;;;5381447;26;20011;-70
2024/04/17 06:57:35;;;;;;;11.55;4.95;;;25.40;99.90;;;;;;5385689;26;20035;-69
2024/04/17 07:00:04;;;;;;;8.38;4.25;;;24.90;99.90;;;;;;5388898;26;20010;-71
2024/04/17 07:02:32;;;;;;;18.25;4.82;;;24.50;99.90;;;;;;5384594;26;20019;-71
2024/04/17 07:04:59;;;;;;;10.43;3.95;;;24.20;99.90;;;;;;5381572;26;20026;-72
2024/04/17 07:07:26;;;;;;;16.38;5.45;;;23.90;99.90;;;;;;5377510;26;20012;-68
2024/04/17 07:09:54;;;;;;;7.97;4.10;;;23.60;99.90;;;;;;5387776;26;20007;-68
2024/04/17 07:12:22;;;;;;;7.63;4.65;;;23.40;99.90;;;;;;5383989;26;20073;-68
2024/04/17 07:14:49;;;;;;;9.40;4.88;;;23.20;99.90;;;;;;5386705;26;20011;-67
2024/04/17 07:17:16;;;;;;;7.40;4.38;;;23.00;99.90;;;;;;5393242;26;20007;-71
2024/04/17 07:19:43;;;;;;;9.07;5.20;;;22.90;99.90;;;;;;5377389;26;20125;-67
2024/04/17 07:22:11;;;;;;;11.75;5.10;;;22.80;99.90;;;;;;5409045;26;20011;-69
2024/04/17 07:24:38;;;;;;;11.48;5.03;;;22.50;99.90;;;;;;5377657;26;20450;-70
2024/04/17 07:27:07;;;;;;;8.65;4.95;;;22.40;99.90;;;;;;5364053;26;20011;-72
2024/04/17 07:29:34;;;;;;;7.63;4.82;;;22.30;99.90;;;;;;5376069;26;20357;-72
2024/04/17 07:32:01;;;;;;;8.95;4.97;;;22.20;99.90;;;;;;5381427;26;20007;-68
2024/04/17 07:34:29;;;;;;;10.35;5.60;;;22.10;99.90;;;;;;5380526;26;20072;-69
2024/04/17 07:36:56;;;;;;;13.13;5.38;;;22.00;99.90;;;;;;5380111;26;19996;-69
2024/04/17 07:39:23;;;;;;;7.78;5.88;;;21.90;99.90;;;;;;5380031;26;20008;-68
2024/04/17 07:41:50;;;;;;;9.32;5.30;;;21.80;99.90;;;;;;5375681;26;20015;-68
2024/04/17 07:44:18;;;;;;;12.65;5.18;;;21.70;99.90;;;;;;5385423;26;20048;-68
2024/04/17 07:46:45;;;;;;;8.95;5.35;;;21.70;99.90;;;;;;5384214;26;20101;-67
2024/04/17 07:49:12;;;;;;;8.15;5.50;;;21.60;99.90;;;;;;5394495;26;20462;-66
2024/04/17 07:51:40;;;;;;;9.73;5.72;;;21.50;99.90;;;;;;5379336;26;20335;-68
2024/04/17 07:54:07;;;;;;;11.55;5.68;;;21.40;99.90;;;;;;5388429;26;20448;-70
2024/04/17 07:56:34;;;;;;;8.35;5.30;;;21.40;99.90;;;;;;5383085;26;19995;-71
2024/04/17 07:59:02;;;;;;;9.00;6.00;;;21.40;99.90;;;;;;5388030;26;20470;-72
2024/04/17 08:01:29;;;;;;;8.20;5.13;;;21.30;99.90;;;;;;5384961;26;20349;-71
2024/04/17 08:03:56;;;;;;;12.30;6.15;;;21.30;99.90;;;;;;5381001;26;20541;-69
2024/04/17 08:06:23;;;;;;;9.77;5.68;;;21.20;99.90;;;;;;5393552;26;20447;-69
2024/04/17 08:08:51;;;;;;;12.05;5.93;;;21.20;99.90;;;;;;5387512;26;20031;-73
2024/04/17 08:11:19;;;;;;;13.45;5.60;;;21.20;99.90;;;;;;5384772;26;20040;-72
2024/04/17 08:13:46;;;;;;;10.20;5.75;;;21.20;99.90;;;;;;5389563;26;19992;-70
2024/04/17 08:16:13;;;;;;;10.25;5.50;;;21.20;99.90;;;;;;5388001;26;20478;-69
2024/04/17 08:18:41;;;;;;;6.28;4.93;;;21.20;99.90;;;;;;5379895;26;19999;-68
2024/04/17 08:21:08;;;;;;;9.68;5.45;;;21.20;99.90;;;;;;5383038;26;19992;-68
2024/04/17 08:23:35;;;;;;;11.90;5.43;;;21.20;99.90;;;;;;5387924;26;20411;-70
2024/04/17 08:26:03;;;;;;;10.13;5.88;;;21.20;99.90;;;;;;5389042;26;19999;-68
2024/04/17 08:28:30;;;;;;;20.05;6.07;;;21.20;99.90;;;;;;5399819;26;20569;-69
2024/04/17 08:30:57;;;;;;;12.90;5.80;;;21.30;99.90;;;;;;5374738;26;20000;-70
2024/04/17 08:33:24;;;;;;;10.02;5.70;;;21.20;99.90;;;;;;5365105;26;20020;-69
2024/04/17 08:35:52;;;;;;;10.95;6.03;;;21.30;99.90;;;;;;5380773;26;21079;-69
2024/04/17 08:38:19;;;;;;;13.13;5.70;;;21.20;99.90;;;;;;5368627;26;20078;-67
2024/04/17 08:40:47;;;;;;;12.13;6.38;;;21.20;99.90;;;;;;5364351;26;20889;-68
2024/04/17 08:43:24;;;;;;;12.07;5.85;;;21.20;99.90;;;;;;5377357;26;20002;-67
2024/04/17 08:45:56;;;;;;;11.13;6.10;;;21.10;99.90;;;;;;5382741;26;20069;-68
2024/04/17 08:48:25;;;;;;;7.50;5.80;;;21.10;99.90;;;;;;5390238;26;19999;-69
2024/04/17 08:50:55;;;;;;;10.77;5.63;;;21.00;99.90;;;;;;5378711;26;20000;-71
2024/04/17 08:53:25;;;;;;;14.73;8.07;;;20.90;99.90;;;;;;5391722;26;20022;-68
2024/04/17 08:55:52;;;;;;;12.15;8.63;;;21.00;99.90;;;;;;5385260;26;20344;-69
2024/04/17 08:58:20;;;;;;;14.30;9.70;;;20.90;99.90;;;;;;5394595;26;20014;-66
2024/04/17 09:00:54;;;;;;;12.68;8.98;;;20.90;99.90;;;;;;5381180;26;20084;-71
2024/04/17 09:03:23;;;;;;;12.68;8.35;;;20.80;99.90;;;;;;5391571;26;20377;-68
2024/04/17 09:05:52;;;;;;;8.07;7.25;;;20.90;99.90;;;;;;5386975;26;20000;-70
2024/04/17 09:08:20;;;;;;;12.93;8.35;;;20.80;99.90;;;;;;5379998;26;20011;-69
2024/04/17 09:10:47;;;;;;;15.13;8.70;;;20.80;99.90;;;;;;5375635;26;20074;-68
2024/04/17 09:13:15;;;;;;;10.40;6.93;;;20.80;99.90;;;;;;5394896;26;19999;-69
2024/04/17 09:15:42;;;;;;;12.60;7.88;;;20.80;99.90;;;;;;5376522;26;20000;-68
2024/04/17 09:18:11;;;;;;;8.02;6.47;;;20.80;99.90;;;;;;5380013;26;20006;-69
2024/04/17 09:20:38;;;;;;;15.82;7.78;;;20.80;99.90;;;;;;5379557;26;20000;-71
2024/04/17 09:23:11;;;;;;;12.00;7.80;;;20.70;99.90;;;;;;5371377;26;19999;-71
2024/04/17 09:25:39;;;;;;;11.02;6.72;;;20.70;99.90;;;;;;5388747;26;20082;-68
2024/04/17 09:28:12;;;;;;;12.48;6.90;;;20.70;99.90;;;;;;5364037;26;20373;-70
2024/04/17 09:30:43;;;;;;;10.63;6.47;;;20.70;99.90;;;;;;5377494;26;20000;-69
2024/04/17 09:33:10;;;;;;;10.27;6.15;;;20.70;99.90;;;;;;5375924;26;20004;-69
2024/04/17 09:35:38;;;;;;;11.20;7.78;;;20.70;99.90;;;;;;5380622;26;20452;-70
2024/04/17 09:38:16;;;;;;;12.07;7.80;;;20.80;99.90;;;;;;5370259;26;20946;-71
2024/04/17 09:40:47;;;;;;;14.43;7.25;;;20.70;99.90;;;;;;5388896;26;20022;-70
2024/04/17 09:43:34;;;;;;;12.40;7.07;;;20.70;99.90;;;;;;5381840;26;20008;-68
2024/04/17 09:46:06;;;;;;;9.65;6.57;;;20.70;99.90;;;;;;5379475;26;20000;-71
2024/04/17 09:48:37;;;;;;;11.82;7.82;;;20.60;99.90;;;;;;5375132;26;20044;-70
2024/04/17 09:51:06;;;;;;;14.38;7.53;;;20.60;99.90;;;;;;5383342;26;20087;-69
2024/04/17 09:53:44;;;;;;;11.38;7.60;;;20.60;99.90;;;;;;5382263;26;20043;-68
2024/04/17 09:56:14;;;;;;;14.75;7.97;;;20.60;99.90;;;;;;5394151;26;20814;-68
2024/04/17 09:58:46;;;;;;;14.27;9.82;;;20.60;99.90;;;;;;5394634;26;20032;-68
2024/04/17 10:01:16;;;;;;;13.70;8.43;;;20.50;99.90;;;;;;5370080;26;20011;-66
2024/04/17 10:03:44;;;;;;;13.90;11.13;;;20.60;99.90;;;;;;5385271;26;20015;-70
2024/04/17 10:06:11;;;;;;;15.85;10.38;;;20.60;99.90;;;;;;5364345;26;20057;-67
2024/04/17 10:08:40;;;;;;;16.80;12.30;;;20.60;99.90;;;;;;5398237;26;20014;-69
2024/04/17 10:11:08;;;;;;;14.27;12.35;;;20.60;99.90;;;;;;5392286;26;20008;-70
2024/04/17 10:13:36;;;;;;;15.15;12.02;;;20.60;99.90;;;;;;5378038;26;20098;-69
2024/04/17 10:16:04;;;;;;;18.35;12.77;;;20.60;99.90;;;;;;5387827;26;20011;-67
2024/04/17 10:18:31;;;;;;;19.83;10.82;;;20.60;99.90;;;;;;5379626;26;20001;-68
2024/04/17 10:20:58;;;;;;;11.55;9.25;;;20.60;99.90;;;;;;5379956;26;20502;-66
2024/04/17 10:23:26;;;;;;;11.23;6.93;;;20.60;99.90;;;;;;5380262;26;20003;-69
2024/04/17 10:25:58;;;;;;;16.63;8.20;;;20.60;99.90;;;;;;5388360;26;20011;-68
2024/04/17 10:28:26;;;;;;;10.43;6.65;;;20.50;99.90;;;;;;5390782;26;19999;-69
2024/04/17 10:30:55;;;;;;;10.05;6.28;;;20.50;99.90;;;;;;5384693;26;20011;-69
2024/04/17 10:33:39;;;;;;;12.68;6.25;;;20.50;99.90;;;;;;5381283;26;20011;-67
2024/04/17 10:36:07;;;;;;;8.75;6.45;;;20.50;99.90;;;;;;5377503;26;20012;-69
2024/04/17 10:38:35;;;;;;;8.07;6.28;;;20.40;99.90;;;;;;5384762;26;19992;-68
2024/04/17 10:41:03;;;;;;;9.05;6.75;;;20.40;99.90;;;;;;5384379;26;20006;-68
2024/04/17 10:43:34;;;;;;;10.45;6.85;;;20.50;99.90;;;;;;5387135;26;20035;-67
2024/04/17 10:46:09;;;;;;;11.25;6.72;;;20.40;99.90;;;;;;5391114;26;20154;-66
2024/04/17 10:48:47;;;;;;;8.38;6.85;;;20.40;99.90;;;;;;5391081;26;20009;-71
2024/04/17 10:51:15;;;;;;;14.70;7.20;;;20.40;99.90;;;;;;5382689;26;20014;-71
2024/04/17 10:53:47;;;;;;;15.45;8.10;;;20.40;99.90;;;;;;5377958;26;20164;-69
2024/04/17 10:56:15;;;;;;;13.77;7.15;;;20.40;99.90;;;;;;5378200;26;20337;-68
2024/04/17 10:58:43;;;;;;;12.48;6.47;;;20.40;99.90;;;;;;5374363;26;20000;-67
2024/04/17 11:01:13;;;;;;;10.88;5.63;;;20.40;99.90;;;;;;5381621;26;20001;-69
2024/04/17 11:03:41;;;;;;;12.23;6.07;;;20.30;99.90;;;;;;5377572;26;20625;-70
2024/04/17 11:06:10;;;;;;;12.82;7.22;;;20.30;99.90;;;;;;5378431;26;20036;-71
2024/04/17 11:08:41;;;;;;;11.90;6.00;;;20.30;99.90;;;;;;5376363;26;20438;-68
2024/04/17 11:11:10;;;;;;;12.85;6.50;;;20.30;99.90;;;;;;5384010;26;19996;-69
2024/04/17 11:13:44;;;;;;;10.23;6.25;;;20.30;99.90;;;;;;5376189;26;20011;-68
2024/04/17 11:16:15;;;;;;;9.73;7.18;;;20.30;99.90;;;;;;5379946;26;20525;-69
2024/04/17 11:18:42;;;;;;;13.18;6.25;;;20.40;99.90;;;;;;5375208;26;19999;-66
2024/04/17 11:21:13;;;;;;;12.38;6.00;;;20.30;99.90;;;;;;5382016;26;19996;-67
2024/04/17 11:23:44;;;;;;;13.95;6.07;;;20.30;99.90;;;;;;5375309;26;20036;-68
2024/04/17 11:26:12;;;;;;;8.80;6.17;;;20.30;99.90;;;;;;5378723;26;20348;-69
2024/04/17 11:28:44;;;;;;;12.55;6.25;;;20.20;99.90;;;;;;5374662;26;20492;-68
2024/04/17 11:31:13;;;;;;;12.10;6.07;;;20.20;99.90;;;;;;5382342;26;20081;-67
2024/04/17 11:33:41;;;;;;;11.82;6.78;;;20.20;99.90;;;;;;5376599;26;20290;-67
2024/04/17 11:36:15;;;;;;;13.15;6.70;;;20.20;99.90;;;;;;5377066;26;20023;-67
2024/04/17 11:38:46;;;;;;;16.20;6.97;;;20.10;99.90;;;;;;5373015;26;20003;-71
2024/04/17 11:41:14;;;;;;;14.85;7.38;;;20.10;99.90;;;;;;5381645;26;20000;-67
2024/04/17 11:43:42;;;;;;;8.20;6.43;;;20.10;99.90;;;;;;5377150;26;20010;-67
2024/04/17 11:46:10;;;;;;;10.65;7.00;;;20.20;99.90;;;;;;5386959;26;20008;-68
2024/04/17 11:48:38;;;;;;;11.98;7.07;;;20.10;99.90;;;;;;5393856;26;20411;-68
2024/04/17 11:51:05;;;;;;;13.35;6.93;;;20.10;99.90;;;;;;5392944;26;20000;-68
2024/04/17 11:53:32;;;;;;;14.18;7.00;;;20.10;99.90;;;;;;5373538;26;20017;-68
2024/04/17 11:56:00;;;;;;;14.38;7.68;;;20.10;99.90;;;;;;5386999;26;19996;-68
2024/04/17 11:58:27;;;;;;;14.82;7.55;;;20.00;99.90;;;;;;5394073;26;20051;-69
2024/04/17 12:00:54;;;;;;;13.07;7.20;;;20.00;99.90;;;;;;5383982;26;20605;-68
2024/04/17 12:03:22;;;;;;;10.95;6.32;;;20.10;99.90;;;;;;5378470;26;20003;-68
2024/04/17 12:05:49;;;;;;;17.45;8.13;;;20.00;99.90;;;;;;5384077;26;20007;-68
2024/04/17 12:08:17;;;;;;;11.05;6.97;;;20.00;99.90;;;;;;5395461;26;20436;-66
2024/04/17 12:10:47;;;;;;;15.73;7.28;;;20.00;99.90;;;;;;5382405;26;20099;-69
2024/04/17 12:13:14;;;;;;;13.82;7.03;;;19.90;99.90;;;;;;5383312;26;20754;-71
2024/04/17 12:15:42;;;;;;;12.90;7.43;;;20.00;99.90;;;;;;5391792;26;20051;-69
2024/04/17 12:18:09;;;;;;;11.82;6.65;;;19.90;99.90;;;;;;5395824;26;20011;-70
2024/04/17 12:20:36;;;;;;;16.13;7.63;;;19.90;99.90;;;;;;5395180;26;20401;-69
2024/04/17 12:23:04;;;;;;;13.35;6.90;;;19.90;99.90;;;;;;5389349;26;20750;-70
2024/04/17 12:28:19;;;;;;;14.02;7.60;;;19.80;99.90;;;;;;5396698;26;20010;-67
2024/04/17 12:30:47;;;;;;;12.98;7.15;;;19.80;99.90;;;;;;5393474;26;20007;-69
2024/04/17 12:33:14;;;;;;;12.45;6.85;;;19.80;99.90;;;;;;5381369;26;20375;-67
2024/04/17 12:35:42;;;;;;;12.50;7.90;;;19.80;99.90;;;;;;5359484;26;20381;-69
2024/04/17 12:38:09;;;;;;;14.15;8.07;;;19.80;99.90;;;;;;5392591;26;20003;-68
2024/04/17 12:40:37;;;;;;;10.20;6.90;;;19.90;99.90;;;;;;5405071;26;20011;-69
2024/04/17 12:43:06;;;;;;;17.80;6.80;;;19.90;99.90;;;;;;5378933;26;20227;-70
2024/04/17 12:45:34;;;;;;;15.77;7.32;;;19.90;99.90;;;;;;5361205;26;19996;-69
2024/04/17 12:48:01;;;;;;;17.55;7.93;;;19.80;99.90;;;;;;5392454;26;20382;-67